sensor_id;sensor_type;location;lat;lon;timestamp;temperature;humidity
6863;DHT22;3470;48.738;9.616;2022-11-20T17:04:12;5.00;99.90
6863;DHT22;3470;48.738;9.616;2022-11-20T17:06:41;4.90;99.90
6863;DHT22;3470;48.738;9.616;2022-11-20T17:09:09;4.80;99.90
6863;DHT22;3470;48.738;9.616;2022-11-20T17:11:35;4.80;99.90
6863;DHT22;3470;48.738;9.616;2022-11-20T17:14:01;4.80;99.90
6863;DHT22;3470;48.738;9.616;2022-11-20T17:16:32;4.80;99.90
6863;DHT22;3470;48.738;9.616;2022-11-20T17:18:58;4.80;99.90
6863;DHT22;3470;48.738;9.616;2022-11-20T17:21:24;4.80;99.90
6863;DHT22;3470;48.738;9.616;2022-11-20T17:23:50;4.80;99.90
6863;DHT22;3470;48.738;9.616;2022-11-20T17:26:21;4.70;99.90
6863;DHT22;3470;48.738;9.616;2022-11-20T17:28:58;4.70;99.90
6863;DHT22;3470;48.738;9.616;2022-11-20T17:31:25;4.70;99.90
6863;DHT22;3470;48.738;9.616;2022-11-20T17:33:51;4.70;99.90
6863;DHT22;3470;48.738;9.616;2022-11-20T17:36:18;4.70;99.90
6863;DHT22;3470;48.738;9.616;2022-11-20T17:38:43;4.70;99.90
6863;DHT22;3470;48.738;9.616;2022-11-20T17:41:18;4.70;99.90
6863;DHT22;3470;48.738;9.616;2022-11-20T17:43:44;4.80;99.90
6863;DHT22;3470;48.738;9.616;2022-11-20T17:46:12;4.80;99.90
6863;DHT22;3470;48.738;9.616;2022-11-20T17:48:38;4.80;99.90
6863;DHT22;3470;48.738;9.616;2022-11-20T17:51:06;4.80;99.90
6863;DHT22;3470;48.738;9.616;2022-11-20T17:53:34;5.00;99.90
6863;DHT22;3470;48.738;9.616;2022-11-20T17:56:00;5.10;99.90
6863;DHT22;3470;48.738;9.616;2022-11-20T17:58:44;5.10;99.90
6863;DHT22;3470;48.738;9.616;2022-11-20T18:01:10;5.20;99.90
6863;DHT22;3470;48.738;9.616;2022-11-20T18:03:36;5.20;99.90
6863;DHT22;3470;48.738;9.616;2022-11-20T18:08:38;5.10;99.90
6863;DHT22;3470;48.738;9.616;2022-11-20T18:11:16;5.10;99.90
6863;DHT22;3470;48.738;9.616;2022-11-20T18:13:43;5.10;99.90
6863;DHT22;3470;48.738;9.616;2022-11-20T18:16:30;5.10;99.90
6863;DHT22;3470;48.738;9.616;2022-11-20T18:18:57;5.10;99.90
6863;DHT22;3470;48.738;9.616;2022-11-20T18:21:27;5.10;99.90
6863;DHT22;3470;48.738;9.616;2022-11-20T18:23:57;5.20;99.90
6863;DHT22;3470;48.738;9.616;2022-11-20T18:26:23;5.20;99.90
6863;DHT22;3470;48.738;9.616;2022-11-20T18:28:50;5.20;99.90
6863;DHT22;3470;48.738;9.616;2022-11-20T18:31:16;5.20;99.90
6863;DHT22;3470;48.738;9.616;2022-11-20T18:33:42;5.30;99.90
6863;DHT22;3470;48.738;9.616;2022-11-20T18:36:13;5.20;99.90
6863;DHT22;3470;48.738;9.616;2022-11-20T18:38:43;5.30;99.90
6863;DHT22;3470;48.738;9.616;2022-11-20T18:41:13;5.30;99.90
6863;DHT22;3470;48.738;9.616;2022-11-20T18:43:58;5.30;99.90
6863;DHT22;3470;48.738;9.616;2022-11-20T18:46:45;5.40;99.90
6863;DHT22;3470;48.738;9.616;2022-11-20T18:49:11;5.40;99.90
6863;DHT22;3470;48.738;9.616;2022-11-20T18:51:37;5.40;99.90
6863;DHT22;3470;48.738;9.616;2022-11-20T18:54:04;5.40;99.90
6863;DHT22;3470;48.738;9.616;2022-11-20T18:56:31;5.40;99.90
6863;DHT22;3470;48.738;9.616;2022-11-20T18:58:59;5.40;99.90
6863;DHT22;3470;48.738;9.616;2022-11-20T19:01:25;5.40;99.90
6863;DHT22;3470;48.738;9.616;2022-11-20T19:03:50;5.40;99.90
6863;DHT22;3470;48.738;9.616;2022-11-20T19:06:16;5.30;99.90
6863;DHT22;3470;48.738;9.616;2022-11-20T19:08:42;5.30;99.90
6863;DHT22;3470;48.738;9.616;2022-11-20T19:11:09;5.20;99.90
6863;DHT22;3470;48.738;9.616;2022-11-20T19:13:36;5.20;99.90
6863;DHT22;3470;48.738;9.616;2022-11-20T19:16:07;5.20;99.90
6863;DHT22;3470;48.738;9.616;2022-11-20T19:18:33;5.20;99.90
6863;DHT22;3470;48.738;9.616;2022-11-20T19:21:09;5.20;99.90
6863;DHT22;3470;48.738;9.616;2022-11-20T19:23:35;4.90;99.90
6863;DHT22;3470;48.738;9.616;2022-11-20T19:26:01;4.80;99.90
6863;DHT22;3470;48.738;9.616;2022-11-20T19:28:30;4.40;99.90
6863;DHT22;3470;48.738;9.616;2022-11-20T19:31:08;4.30;99.90
6863;DHT22;3470;48.738;9.616;2022-11-20T19:33:34;4.30;99.90
6863;DHT22;3470;48.738;9.616;2022-11-20T19:36:10;4.30;99.90
6863;DHT22;3470;48.738;9.616;2022-11-20T19:38:37;4.40;99.90
6863;DHT22;3470;48.738;9.616;2022-11-20T19:41:04;4.40;99.90
6863;DHT22;3470;48.738;9.616;2022-11-20T19:43:30;4.40;99.90
6863;DHT22;3470;48.738;9.616;2022-11-20T19:45:56;4.20;99.90
6863;DHT22;3470;48.738;9.616;2022-11-20T19:48:21;4.20;99.90
6863;DHT22;3470;48.738;9.616;2022-11-20T19:50:47;4.10;99.90
6863;DHT22;3470;48.738;9.616;2022-11-20T19:53:13;4.00;99.90
6863;DHT22;3470;48.738;9.616;2022-11-20T19:55:38;4.00;99.90
6863;DHT22;3470;48.738;9.616;2022-11-20T19:58:04;4.00;99.90
6863;DHT22;3470;48.738;9.616;2022-11-20T20:00:30;4.00;99.90
6863;DHT22;3470;48.738;9.616;2022-11-20T20:02:56;4.00;99.90
6863;DHT22;3470;48.738;9.616;2022-11-20T20:05:22;4.00;99.90
6863;DHT22;3470;48.738;9.616;2022-11-20T20:07:47;4.00;99.90
6863;DHT22;3470;48.738;9.616;2022-11-20T20:10:13;4.00;99.90
6863;DHT22;3470;48.738;9.616;2022-11-20T20:12:39;4.00;99.90
6863;DHT22;3470;48.738;9.616;2022-11-20T20:15:05;4.00;99.90
6863;DHT22;3470;48.738;9.616;2022-11-20T20:17:31;4.00;99.90
6863;DHT22;3470;48.738;9.616;2022-11-20T20:19:56;4.00;99.90
6863;DHT22;3470;48.738;9.616;2022-11-20T20:22:22;4.00;99.90
6863;DHT22;3470;48.738;9.616;2022-11-20T20:24:47;4.00;99.90
6863;DHT22;3470;48.738;9.616;2022-11-20T20:27:13;4.00;99.90
6863;DHT22;3470;48.738;9.616;2022-11-20T20:29:38;4.00;99.90
6863;DHT22;3470;48.738;9.616;2022-11-20T20:32:04;4.00;99.90
6863;DHT22;3470;48.738;9.616;2022-11-20T20:34:30;4.00;99.90
6863;DHT22;3470;48.738;9.616;2022-11-20T20:36:56;4.10;99.90
6863;DHT22;3470;48.738;9.616;2022-11-20T20:39:21;4.10;99.90
6863;DHT22;3470;48.738;9.616;2022-11-20T20:41:49;4.10;99.90
6863;DHT22;3470;48.738;9.616;2022-11-20T20:44:14;4.10;99.90
6863;DHT22;3470;48.738;9.616;2022-11-20T20:46:59;4.10;99.90
6863;DHT22;3470;48.738;9.616;2022-11-20T20:49:24;4.10;99.90
6863;DHT22;3470;48.738;9.616;2022-11-20T20:51:50;4.10;99.90
6863;DHT22;3470;48.738;9.616;2022-11-20T20:54:15;4.10;99.90
6863;DHT22;3470;48.738;9.616;2022-11-20T20:56:41;4.20;99.90
6863;DHT22;3470;48.738;9.616;2022-11-20T20:59:07;4.20;99.90
6863;DHT22;3470;48.738;9.616;2022-11-20T21:01:32;4.20;99.90
6863;DHT22;3470;48.738;9.616;2022-11-20T21:03:58;4.20;99.90
6863;DHT22;3470;48.738;9.616;2022-11-20T21:06:24;4.30;99.90
6863;DHT22;3470;48.738;9.616;2022-11-20T21:08:50;4.30;99.90
6863;DHT22;3470;48.738;9.616;2022-11-20T21:11:18;4.40;99.90
6863;DHT22;3470;48.738;9.616;2022-11-20T21:13:46;4.30;99.90
6863;DHT22;3470;48.738;9.616;2022-11-20T21:16:13;4.30;99.90
6863;DHT22;3470;48.738;9.616;2022-11-20T21:18:39;4.20;99.90
6863;DHT22;3470;48.738;9.616;2022-11-20T21:21:07;4.20;99.90
6863;DHT22;3470;48.738;9.616;2022-11-20T21:23:51;4.20;99.90
6863;DHT22;3470;48.738;9.616;2022-11-20T21:26:18;4.20;99.90
6863;DHT22;3470;48.738;9.616;2022-11-20T21:28:44;4.20;99.90
6863;DHT22;3470;48.738;9.616;2022-11-20T21:31:20;4.20;99.90
6863;DHT22;3470;48.738;9.616;2022-11-20T21:33:48;4.20;99.90
6863;DHT22;3470;48.738;9.616;2022-11-20T21:36:19;4.20;99.90
6863;DHT22;3470;48.738;9.616;2022-11-20T21:38:45;4.30;99.90
6863;DHT22;3470;48.738;9.616;2022-11-20T21:41:12;4.30;99.90
6863;DHT22;3470;48.738;9.616;2022-11-20T21:43:39;4.40;99.90
6863;DHT22;3470;48.738;9.616;2022-11-20T21:46:10;4.40;99.90
6863;DHT22;3470;48.738;9.616;2022-11-20T21:48:37;4.40;99.90
6863;DHT22;3470;48.738;9.616;2022-11-20T21:51:05;4.40;99.90
6863;DHT22;3470;48.738;9.616;2022-11-20T21:53:31;4.40;99.90
6863;DHT22;3470;48.738;9.616;2022-11-20T21:55:57;4.40;99.90
6863;DHT22;3470;48.738;9.616;2022-11-20T21:58:24;4.50;99.90
6863;DHT22;3470;48.738;9.616;2022-11-20T22:00:49;4.50;99.90
6863;DHT22;3470;48.738;9.616;2022-11-20T22:03:15;4.40;99.90
6863;DHT22;3470;48.738;9.616;2022-11-20T22:05:41;4.40;99.90
6863;DHT22;3470;48.738;9.616;2022-11-20T22:08:06;4.40;99.90
6863;DHT22;3470;48.738;9.616;2022-11-20T22:10:32;4.40;99.90
6863;DHT22;3470;48.738;9.616;2022-11-20T22:12:57;4.50;99.90
6863;DHT22;3470;48.738;9.616;2022-11-20T22:15:42;4.40;99.90
6863;DHT22;3470;48.738;9.616;2022-11-20T22:37:33;4.10;99.90
6863;DHT22;3470;48.738;9.616;2022-11-20T22:39:59;4.10;99.90
6863;DHT22;3470;48.738;9.616;2022-11-20T22:42:25;4.10;99.90
6863;DHT22;3470;48.738;9.616;2022-11-20T22:44:50;4.20;99.90
6863;DHT22;3470;48.738;9.616;2022-11-20T22:47:16;4.20;99.90
6863;DHT22;3470;48.738;9.616;2022-11-20T22:49:41;4.20;99.90
6863;DHT22;3470;48.738;9.616;2022-11-20T22:52:07;4.20;99.90
6863;DHT22;3470;48.738;9.616;2022-11-20T22:54:32;4.20;99.90
6863;DHT22;3470;48.738;9.616;2022-11-20T22:56:58;4.20;99.90
6863;DHT22;3470;48.738;9.616;2022-11-20T22:59:23;4.20;99.90
6863;DHT22;3470;48.738;9.616;2022-11-20T23:01:49;4.30;99.90
6863;DHT22;3470;48.738;9.616;2022-11-20T23:04:14;4.30;99.90
6863;DHT22;3470;48.738;9.616;2022-11-20T23:06:40;4.50;99.90
